Time;durP1;ratioP1;P1;durP2;ratioP2;P2;SDS_P1;SDS_P2;PMS_P1;PMS_P2;Temp;Humidity;BMP_temperature;BMP_pressure;BME280_temperature;BME280_humidity;BME280_pressure;Samples;Min_cycle;Max_cycle;Signal;HPM_P1;HPM_P2
2023/10/01 00:00:20;;;;;;;;;;;;;;;9.51;85.59;101184.19;107698;276;106436;-54
2023/10/01 00:03:14;;;;;;;;;;;;;;;9.51;85.54;101178.82;107681;276;112453;-54
2023/10/01 00:05:48;;;;;;;;;;;;;;;9.53;85.62;101176.10;107754;277;95375;-58
2023/10/01 00:08:22;;;;;;;;;;;;;;;9.55;85.80;101174.45;107828;277;96493;-59
2023/10/01 00:10:52;;;;;;;;;;;;;;;9.51;85.74;101170.02;107774;277;121676;-54
2023/10/01 00:13:28;;;;;;;;;;;;;;;9.48;85.77;101166.33;107728;276;105310;-53
2023/10/01 00:16:03;;;;;;;;;;;;;;;9.44;85.75;101170.20;107691;276;112171;-57
2023/10/01 00:18:41;;;;;;;;;;;;;;;9.44;85.70;101170.56;107671;276;96771;-57
2023/10/01 00:21:17;;;;;;;;;;;;;;;9.47;85.99;101168.09;107528;277;97583;-57
2023/10/01 00:23:51;;;;;;;;;;;;;;;9.46;85.83;101164.55;107691;276;121646;-57
2023/10/01 00:26:26;;;;;;;;;;;;;;;9.48;86.09;101161.86;107742;277;105945;-54
2023/10/01 00:29:01;;;;;;;;;;;;;;;9.52;86.04;101163.64;107696;277;114848;-54
2023/10/01 00:31:36;;;;;;;;;;;;;;;9.54;86.11;101162.55;107742;277;96428;-58
2023/10/01 00:34:10;;;;;;;;;;;;;;;9.50;85.94;101161.69;107848;276;96465;-58
2023/10/01 00:36:49;;;;;;;;;;;;;;;9.51;85.99;101159.92;107605;277;122486;-58
2023/10/01 00:39:23;;;;;;;;;;;;;;;9.51;86.09;101160.45;107605;276;103572;-58
2023/10/01 00:41:53;;;;;;;;;;;;;;;9.53;86.06;101161.50;107674;277;113815;-52
2023/10/01 00:44:24;;;;;;;;;;;;;;;9.51;85.99;101154.91;107651;277;96657;-54
2023/10/01 00:46:59;;;;;;;;;;;;;;;9.52;86.09;101160.02;107670;276;98216;-54
2023/10/01 00:49:40;;;;;;;;;;;;;;;9.49;85.99;101153.46;107629;276;121914;-53
2023/10/01 00:52:18;;;;;;;;;;;;;;;9.50;86.26;101154.04;107476;277;104964;-54
2023/10/01 00:54:51;;;;;;;;;;;;;;;9.50;86.30;101157.17;107651;277;114540;-54
2023/10/01 00:57:21;;;;;;;;;;;;;;;9.47;86.23;101161.92;107659;276;97372;-56
2023/10/01 00:59:55;;;;;;;;;;;;;;;9.47;86.22;101163.98;107733;276;96431;-53
2023/10/01 01:02:30;;;;;;;;;;;;;;;9.49;86.29;101157.81;107728;276;120305;-58
2023/10/01 01:05:19;;;;;;;;;;;;;;;9.48;86.23;101161.27;107685;276;105649;-56
2023/10/01 01:08:00;;;;;;;;;;;;;;;9.46;86.31;101162.92;107876;276;112866;-59
2023/10/01 01:10:45;;;;;;;;;;;;;;;9.43;86.13;101159.58;107808;276;96222;-57
2023/10/01 01:13:24;;;;;;;;;;;;;;;9.38;86.27;101162.59;107672;276;96372;-56
2023/10/01 01:16:05;;;;;;;;;;;;;;;9.36;86.31;101156.02;107490;277;121175;-54
2023/10/01 01:18:42;;;;;;;;;;;;;;;9.34;86.38;101152.06;107646;277;104803;-54
2023/10/01 01:21:16;;;;;;;;;;;;;;;9.34;86.47;101154.56;107689;277;114501;-52
2023/10/01 01:23:51;;;;;;;;;;;;;;;9.37;86.47;101152.47;107639;276;97311;-54
2023/10/01 01:26:30;;;;;;;;;;;;;;;9.38;86.53;101153.27;107684;276;95808;-52
2023/10/01 01:29:16;;;;;;;;;;;;;;;9.36;86.52;101155.27;107678;276;122039;-54
2023/10/01 01:32:06;;;;;;;;;;;;;;;9.36;86.60;101158.13;107641;276;104826;-57
2023/10/01 01:34:41;;;;;;;;;;;;;;;9.39;86.73;101160.13;107593;276;114007;-55
2023/10/01 01:37:30;;;;;;;;;;;;;;;9.40;86.81;101156.43;107655;275;96429;-55
2023/10/01 01:40:20;;;;;;;;;;;;;;;9.39;86.85;101145.77;107615;275;97747;-56
2023/10/01 01:42:58;;;;;;;;;;;;;;;9.41;86.75;101134.90;107675;275;120943;-57
2023/10/01 01:45:33;;;;;;;;;;;;;;;9.43;86.78;101133.45;107658;275;105399;-57
2023/10/01 01:48:21;;;;;;;;;;;;;;;9.42;86.82;101131.23;107693;275;115628;-57
2023/10/01 01:50:58;;;;;;;;;;;;;;;9.38;86.79;101132.14;107676;275;97094;-56
2023/10/01 01:53:35;;;;;;;;;;;;;;;9.37;86.89;101130.86;107712;275;97736;-57
2023/10/01 01:56:11;;;;;;;;;;;;;;;9.40;86.88;101135.73;107477;275;123210;-54
2023/10/01 01:58:47;;;;;;;;;;;;;;;9.45;86.96;101140.20;107684;275;104991;-55
2023/10/01 02:01:23;;;;;;;;;;;;;;;9.48;86.93;101133.50;107715;275;113896;-54
2023/10/01 02:03:57;;;;;;;;;;;;;;;9.54;87.04;101135.71;107670;275;97280;-57
2023/10/01 02:06:31;;;;;;;;;;;;;;;9.55;87.01;101133.21;107710;275;95593;-55
2023/10/01 02:09:14;;;;;;;;;;;;;;;9.59;87.05;101132.32;107637;275;120600;-56
2023/10/01 02:11:47;;;;;;;;;;;;;;;9.70;87.07;101132.54;107454;275;106082;-55
2023/10/01 02:17:15;;;;;;;;;;;;;;;9.73;86.97;101131.06;107630;275;96766;-53
2023/10/01 02:19:46;;;;;;;;;;;;;;;9.74;86.89;101131.17;107493;275;96863;-53
2023/10/01 02:22:17;;;;;;;;;;;;;;;9.72;87.00;101127.64;107662;275;122796;-53
2023/10/01 02:24:54;;;;;;;;;;;;;;;9.73;86.87;101123.74;107670;275;104383;-54
2023/10/01 02:27:28;;;;;;;;;;;;;;;9.71;86.80;101127.30;107685;275;115443;-56
2023/10/01 02:30:14;;;;;;;;;;;;;;;9.65;86.81;101124.57;107693;275;97629;-57
2023/10/01 02:35:36;;;;;;;;;;;;;;;9.53;86.82;101133.29;107714;275;120395;-58
2023/10/01 02:38:36;;;;;;;;;;;;;;;9.54;86.94;101128.48;107871;275;103470;-58
2023/10/01 02:41:01;;;;;;;;;;;;;;;9.57;86.85;101129.98;107732;275;113955;-57
2023/10/01 02:43:41;;;;;;;;;;;;;;;9.58;86.90;101124.96;107694;277;96575;-57
2023/10/01 02:46:26;;;;;;;;;;;;;;;9.60;86.92;101130.23;107749;275;98024;-59
2023/10/01 02:49:00;;;;;;;;;;;;;;;9.59;87.03;101123.61;107729;275;120927;-59
2023/10/01 02:51:38;;;;;;;;;;;;;;;9.64;87.04;101122.20;107668;275;104900;-55
2023/10/01 02:54:12;;;;;;;;;;;;;;;9.68;87.11;101120.33;107629;275;114058;-56
2023/10/01 02:57:11;;;;;;;;;;;;;;;9.73;87.14;101121.52;107697;275;96561;-58
2023/10/01 03:02:32;;;;;;;;;;;;;;;9.82;87.09;101125.75;107641;275;119847;-54
2023/10/01 03:05:16;;;;;;;;;;;;;;;9.88;87.12;101114.36;107688;275;103783;-55
2023/10/01 03:07:51;;;;;;;;;;;;;;;9.92;86.89;101111.22;107687;275;114086;-57
2023/10/01 03:10:31;;;;;;;;;;;;;;;9.96;86.96;101119.05;107704;275;96547;-58
2023/10/01 03:13:14;;;;;;;;;;;;;;;9.99;86.97;101118.33;107800;275;95942;-57
2023/10/01 03:16:39;;;;;;;;;;;;;;;9.99;86.94;101109.27;107796;275;121250;-56
2023/10/01 03:18:44;;;;;;;;;;;;;;;10.01;86.87;101107.27;107754;275;105630;-57
2023/10/01 03:22:12;;;;;;;;;;;;;;;10.05;86.87;101111.13;107768;275;114945;-58
2023/10/01 03:24:20;;;;;;;;;;;;;;;10.04;86.96;101101.75;107869;275;96923;-59
2023/10/01 03:27:03;;;;;;;;;;;;;;;10.06;86.91;101110.67;107794;275;96726;-54
2023/10/01 03:29:42;;;;;;;;;;;;;;;10.07;87.02;101115.73;107718;275;121719;-55
2023/10/01 03:32:32;;;;;;;;;;;;;;;10.10;87.07;101113.55;107736;275;105267;-54
2023/10/01 03:35:08;;;;;;;;;;;;;;;10.08;87.07;101110.04;107734;275;114261;-54
2023/10/01 03:37:43;;;;;;;;;;;;;;;10.16;87.12;101107.54;107711;275;96656;-57
2023/10/01 03:40:21;;;;;;;;;;;;;;;10.20;86.97;101103.39;107770;275;97966;-57
2023/10/01 03:42:56;;;;;;;;;;;;;;;10.23;86.93;101105.78;107528;275;123146;-56
2023/10/01 03:45:51;;;;;;;;;;;;;;;10.23;86.92;101099.10;107748;275;105574;-56
2023/10/01 03:48:42;;;;;;;;;;;;;;;10.28;86.85;101102.34;107696;275;114926;-57
2023/10/01 03:51:52;;;;;;;;;;;;;;;10.33;86.96;101105.61;107757;275;96305;-58
2023/10/01 03:54:52;;;;;;;;;;;;;;;10.35;86.79;101104.05;107750;275;97976;-58
2023/10/01 03:57:22;;;;;;;;;;;;;;;10.37;86.77;101109.08;107242;275;673073;-56
2023/10/01 04:00:28;;;;;;;;;;;;;;;10.38;86.70;101118.90;107613;275;106363;-56
2023/10/01 04:02:50;;;;;;;;;;;;;;;10.43;86.76;101116.63;107797;275;115582;-54
2023/10/01 04:05:47;;;;;;;;;;;;;;;10.50;86.70;101117.71;107756;275;97104;-58
2023/10/01 04:08:22;;;;;;;;;;;;;;;10.51;86.60;101117.86;107927;275;97212;-58
2023/10/01 04:11:05;;;;;;;;;;;;;;;10.53;86.74;101122.77;107961;275;122247;-57
2023/10/01 04:13:42;;;;;;;;;;;;;;;10.54;86.82;101124.10;107867;275;105913;-56
2023/10/01 04:16:15;;;;;;;;;;;;;;;10.54;86.86;101121.52;107889;275;115252;-58
2023/10/01 04:18:49;;;;;;;;;;;;;;;10.58;86.66;101115.09;107796;275;95841;-59
2023/10/01 04:21:25;;;;;;;;;;;;;;;10.60;86.56;101116.13;107787;275;96042;-56
2023/10/01 04:24:03;;;;;;;;;;;;;;;10.62;86.48;101118.11;107687;275;120775;-56
2023/10/01 04:26:37;;;;;;;;;;;;;;;10.60;86.62;101119.91;107666;275;104763;-55
2023/10/01 04:29:16;;;;;;;;;;;;;;;10.55;86.72;101118.52;107426;275;114190;-55
2023/10/01 04:32:00;;;;;;;;;;;;;;;10.53;86.76;101123.44;107810;275;96844;-59
2023/10/01 04:34:44;;;;;;;;;;;;;;;10.50;86.65;101121.82;107843;275;95436;-59
2023/10/01 04:37:36;;;;;;;;;;;;;;;10.53;86.71;101118.58;107880;275;120623;-59
2023/10/01 04:43:08;;;;;;;;;;;;;;;10.60;86.67;101107.31;107865;275;113597;-59
2023/10/01 04:45:52;;;;;;;;;;;;;;;10.63;86.77;101102.48;107800;275;97149;-56
2023/10/01 04:48:36;;;;;;;;;;;;;;;10.65;86.56;101101.42;107751;275;98021;-57
2023/10/01 04:51:08;;;;;;;;;;;;;;;10.66;86.65;101092.48;107751;275;121745;-56
2023/10/01 04:53:39;;;;;;;;;;;;;;;10.67;86.51;101090.02;107704;275;103665;-56
2023/10/01 04:56:21;;;;;;;;;;;;;;;10.71;86.56;101089.86;107581;275;114070;-59
2023/10/01 04:59:07;;;;;;;;;;;;;;;10.75;86.52;101094.34;107926;275;95428;-59
2023/10/01 05:01:47;;;;;;;;;;;;;;;10.78;86.57;101095.66;107922;275;97481;-58
2023/10/01 05:04:22;;;;;;;;;;;;;;;10.79;86.58;101104.51;108005;275;120640;-59
2023/10/01 05:07:04;;;;;;;;;;;;;;;10.82;86.44;101110.78;107741;275;104445;-54
2023/10/01 05:09:38;;;;;;;;;;;;;;;10.87;86.49;101101.90;107663;275;114649;-53
2023/10/01 05:12:08;;;;;;;;;;;;;;;10.89;86.50;101100.95;107655;275;96277;-55
2023/10/01 05:14:59;;;;;;;;;;;;;;;10.89;86.48;101097.04;107688;275;96043;-56
2023/10/01 05:17:38;;;;;;;;;;;;;;;10.90;86.51;101101.43;107472;275;121887;-56
2023/10/01 05:20:12;;;;;;;;;;;;;;;10.94;86.46;101101.52;107675;275;104850;-55
2023/10/01 05:22:48;;;;;;;;;;;;;;;10.99;86.39;101098.79;107643;275;112128;-54
2023/10/01 05:25:31;;;;;;;;;;;;;;;10.97;86.38;101100.05;107700;275;96985;-57
2023/10/01 05:28:23;;;;;;;;;;;;;;;10.97;86.36;101108.56;107942;275;97240;-59
2023/10/01 05:30:58;;;;;;;;;;;;;;;11.00;86.50;101113.77;107830;275;119617;-55
2023/10/01 05:33:32;;;;;;;;;;;;;;;11.07;86.33;101113.67;107735;275;105488;-54
2023/10/01 05:36:06;;;;;;;;;;;;;;;11.09;86.36;101116.55;107725;275;112283;-54
2023/10/01 05:38:37;;;;;;;;;;;;;;;11.12;86.46;101118.30;107699;275;96198;-56
2023/10/01 05:41:15;;;;;;;;;;;;;;;11.17;86.30;101126.70;107638;275;97643;-56
2023/10/01 05:43:50;;;;;;;;;;;;;;;11.17;86.35;101120.20;107652;275;122296;-55
2023/10/01 05:46:27;;;;;;;;;;;;;;;11.23;86.29;101116.86;107627;275;105525;-58
2023/10/01 05:49:04;;;;;;;;;;;;;;;11.30;86.34;101119.05;107684;275;114030;-57
2023/10/01 05:51:45;;;;;;;;;;;;;;;11.35;86.30;101114.95;107676;275;95350;-54
2023/10/01 05:54:21;;;;;;;;;;;;;;;11.42;86.14;101111.61;107679;275;97826;-54
2023/10/01 05:56:55;;;;;;;;;;;;;;;11.48;86.24;101108.52;107716;275;120524;-56
2023/10/01 05:59:30;;;;;;;;;;;;;;;11.54;86.15;101109.85;107697;275;104874;-54
2023/10/01 06:02:07;;;;;;;;;;;;;;;11.64;85.99;101116.46;107635;275;114087;-57
2023/10/01 06:04:42;;;;;;;;;;;;;;;11.72;86.02;101118.05;107412;275;96037;-58
2023/10/01 06:07:17;;;;;;;;;;;;;;;11.80;86.08;101123.52;107675;275;96406;-56
2023/10/01 06:09:52;;;;;;;;;;;;;;;11.83;86.07;101124.41;107677;275;122904;-55
2023/10/01 06:12:25;;;;;;;;;;;;;;;11.92;85.83;101123.22;107686;275;106045;-56
2023/10/01 06:15:11;;;;;;;;;;;;;;;11.99;85.75;101123.52;107651;275;115654;-56
2023/10/01 06:17:47;;;;;;;;;;;;;;;12.01;85.69;101124.67;107712;275;94696;-55
2023/10/01 06:20:33;;;;;;;;;;;;;;;12.08;85.52;101121.55;107642;275;97767;-56
2023/10/01 06:23:10;;;;;;;;;;;;;;;12.10;85.55;101116.59;107706;275;120625;-57
2023/10/01 06:25:53;;;;;;;;;;;;;;;12.13;85.42;101121.27;107679;275;105103;-57
2023/10/01 06:28:27;;;;;;;;;;;;;;;12.17;85.55;101130.85;107665;275;113072;-56
2023/10/01 06:31:05;;;;;;;;;;;;;;;12.19;85.39;101142.86;107660;275;96059;-53
2023/10/01 06:33:38;;;;;;;;;;;;;;;12.20;85.38;101140.77;107698;275;96858;-54
2023/10/01 06:36:21;;;;;;;;;;;;;;;12.23;85.40;101137.92;107757;275;121994;-58
2023/10/01 06:38:59;;;;;;;;;;;;;;;12.24;85.50;101139.01;107645;275;104715;-58
2023/10/01 06:41:32;;;;;;;;;;;;;;;12.32;85.34;101133.00;107641;275;114636;-58
2023/10/01 06:44:08;;;;;;;;;;;;;;;12.34;85.30;101127.31;107840;275;96309;-58
2023/10/01 06:46:47;;;;;;;;;;;;;;;12.43;85.31;101127.91;107847;275;95659;-59
2023/10/01 06:49:21;;;;;;;;;;;;;;;12.50;85.28;101123.61;107961;275;119021;-59
2023/10/01 06:51:52;;;;;;;;;;;;;;;12.60;85.00;101122.30;107742;275;104434;-54
2023/10/01 06:54:26;;;;;;;;;;;;;;;12.67;84.98;101125.30;107637;275;113760;-53
2023/10/01 06:57:16;;;;;;;;;;;;;;;12.73;84.95;101123.75;107719;275;96392;-59
2023/10/01 06:59:51;;;;;;;;;;;;;;;12.76;84.92;101127.38;107537;275;96459;-59
2023/10/01 07:02:23;;;;;;;;;;;;;;;12.78;84.55;101127.39;107681;275;120340;-54
2023/10/01 07:04:56;;;;;;;;;;;;;;;12.83;84.61;101125.58;107715;275;104304;-53
2023/10/01 07:07:35;;;;;;;;;;;;;;;12.84;84.47;101127.10;107908;275;114607;-58
2023/10/01 07:10:13;;;;;;;;;;;;;;;12.85;84.42;101128.41;107970;275;94279;-58
2023/10/01 07:12:58;;;;;;;;;;;;;;;12.88;84.63;101129.29;107948;275;96442;-58
2023/10/01 07:15:37;;;;;;;;;;;;;;;12.95;84.58;101126.26;107865;275;121993;-54
2023/10/01 07:18:19;;;;;;;;;;;;;;;13.05;84.61;101130.69;107684;275;104471;-53
2023/10/01 07:20:52;;;;;;;;;;;;;;;13.17;84.73;101134.44;107780;275;112367;-59
2023/10/01 07:23:23;;;;;;;;;;;;;;;13.32;84.60;101137.19;108012;275;95337;-59
2023/10/01 07:26:03;;;;;;;;;;;;;;;13.53;84.57;101138.55;108005;275;95336;-58
2023/10/01 07:28:39;;;;;;;;;;;;;;;13.79;84.61;101132.87;107658;276;121583;-57
2023/10/01 07:31:19;;;;;;;;;;;;;;;14.03;84.10;101131.82;107683;275;105094;-54
2023/10/01 07:34:12;;;;;;;;;;;;;;;14.22;83.85;101129.66;107616;275;115277;-54
2023/10/01 07:36:47;;;;;;;;;;;;;;;14.34;83.66;101126.42;107794;275;95747;-59
2023/10/01 07:39:34;;;;;;;;;;;;;;;14.46;83.17;101118.02;107814;275;95997;-59
2023/10/01 07:42:11;;;;;;;;;;;;;;;14.58;83.22;101124.98;107750;275;120695;-60
2023/10/01 07:44:49;;;;;;;;;;;;;;;14.68;83.25;101127.95;107655;275;105449;-54
2023/10/01 07:47:31;;;;;;;;;;;;;;;14.83;82.83;101127.92;108070;275;114548;-59
2023/10/01 07:50:05;;;;;;;;;;;;;;;14.94;82.72;101128.21;107778;275;95699;-58
2023/10/01 07:52:44;;;;;;;;;;;;;;;15.10;82.35;101124.66;107913;275;97080;-59
2023/10/01 07:55:34;;;;;;;;;;;;;;;15.23;82.17;101125.05;107865;275;120831;-58
2023/10/01 07:58:44;;;;;;;;;;;;;;;15.37;81.59;101128.45;107960;275;106640;-59
2023/10/01 08:04:08;;;;;;;;;;;;;;;15.73;80.37;101134.68;107649;275;94189;-58
2023/10/01 08:06:49;;;;;;;;;;;;;;;15.78;80.29;101129.91;107795;275;95739;-52
2023/10/01 08:09:26;;;;;;;;;;;;;;;15.94;80.23;101130.84;107747;275;121135;-53
2023/10/01 08:12:05;;;;;;;;;;;;;;;16.12;79.94;101124.16;107701;275;104026;-53
2023/10/01 08:14:40;;;;;;;;;;;;;;;16.29;79.35;101121.70;107665;275;113489;-53
2023/10/01 08:17:20;;;;;;;;;;;;;;;16.34;79.24;101125.65;107675;275;93821;-54
2023/10/01 08:20:14;;;;;;;;;;;;;;;16.38;78.84;101123.71;107731;275;97821;-52
2023/10/01 08:25:42;;;;;;;;;;;;;;;16.28;78.09;101124.85;107676;275;104873;-57
2023/10/01 08:28:43;;;;;;;;;;;;;;;16.31;78.15;101123.34;107751;275;115120;-58
2023/10/01 08:37:06;;;;;;;;;;;;;;;16.47;77.16;101117.72;107645;275;121411;-54
2023/10/01 08:39:48;;;;;;;;;;;;;;;16.52;76.82;101118.70;107682;275;105854;-53
2023/10/01 08:42:28;;;;;;;;;;;;;;;16.63;76.19;101114.25;107689;275;114026;-55
2023/10/01 08:45:05;;;;;;;;;;;;;;;16.68;75.95;101115.72;107723;275;94345;-55
2023/10/01 08:47:48;;;;;;;;;;;;;;;16.78;75.87;101121.21;107710;275;97063;-56
2023/10/01 08:50:36;;;;;;;;;;;;;;;16.83;75.62;101119.10;107708;275;121874;-58
2023/10/01 08:53:12;;;;;;;;;;;;;;;16.81;75.71;101123.14;107889;275;106520;-58
2023/10/01 08:56:06;;;;;;;;;;;;;;;16.89;75.50;101123.08;107800;275;114073;-52
2023/10/01 08:58:48;;;;;;;;;;;;;;;17.00;75.41;101127.77;107667;275;95023;-54
2023/10/01 09:01:27;;;;;;;;;;;;;;;17.15;75.25;101129.23;107719;275;97726;-55
2023/10/01 09:04:29;;;;;;;;;;;;;;;17.26;75.26;101132.03;107644;275;122919;-53
2023/10/01 09:07:05;;;;;;;;;;;;;;;17.31;74.81;101138.14;107714;275;103042;-55
2023/10/01 09:09:51;;;;;;;;;;;;;;;17.36;74.68;101134.67;107681;275;112787;-55
2023/10/01 09:12:26;;;;;;;;;;;;;;;17.43;74.28;101139.94;107649;275;94813;-55
2023/10/01 09:15:00;;;;;;;;;;;;;;;17.61;74.39;101135.81;107699;275;96081;-55
2023/10/01 09:17:56;;;;;;;;;;;;;;;18.08;74.13;101134.80;107655;275;121038;-55
2023/10/01 09:20:42;;;;;;;;;;;;;;;18.24;73.08;101134.21;107705;275;104650;-59
2023/10/01 09:23:15;;;;;;;;;;;;;;;18.21;72.54;101132.07;107847;275;115016;-58
2023/10/01 09:26:00;;;;;;;;;;;;;;;18.21;72.52;101133.58;107779;275;95540;-56
2023/10/01 09:28:38;;;;;;;;;;;;;;;18.21;72.38;101135.94;107673;275;97658;-55
2023/10/01 09:31:26;;;;;;;;;;;;;;;18.31;72.48;101142.34;107473;275;123814;-55
2023/10/01 09:34:29;;;;;;;;;;;;;;;18.34;72.19;101142.10;107711;275;105530;-55
2023/10/01 09:37:03;;;;;;;;;;;;;;;18.48;71.87;101132.66;107725;275;114443;-55
2023/10/01 09:39:41;;;;;;;;;;;;;;;18.61;71.94;101132.36;107715;275;94108;-55
2023/10/01 09:42:26;;;;;;;;;;;;;;;18.71;71.47;101131.39;107887;275;97345;-59
2023/10/01 09:45:10;;;;;;;;;;;;;;;18.77;71.12;101131.48;107622;275;121577;-57
2023/10/01 09:48:09;;;;;;;;;;;;;;;18.77;70.74;101130.98;107813;275;105194;-58
2023/10/01 09:50:43;;;;;;;;;;;;;;;18.78;70.54;101131.69;107767;275;114390;-58
2023/10/01 09:53:25;;;;;;;;;;;;;;;18.80;70.33;101132.02;107802;275;93378;-59
2023/10/01 09:55:59;;;;;;;;;;;;;;;18.83;70.04;101134.67;107759;275;95825;-57
2023/10/01 09:58:37;;;;;;;;;;;;;;;18.85;69.78;101133.77;107489;275;121753;-56
2023/10/01 10:01:18;;;;;;;;;;;;;;;18.93;69.36;101133.20;107672;275;103885;-54
2023/10/01 10:03:54;;;;;;;;;;;;;;;18.97;69.16;101130.70;107655;275;113019;-53
2023/10/01 10:06:25;;;;;;;;;;;;;;;19.00;69.19;101128.99;107663;275;93759;-56
2023/10/01 10:09:03;;;;;;;;;;;;;;;19.07;69.20;101122.19;107672;275;97906;-55
2023/10/01 10:11:56;;;;;;;;;;;;;;;19.13;69.20;101119.84;107674;275;121803;-52
2023/10/01 10:14:57;;;;;;;;;;;;;;;19.27;69.21;101113.14;107666;275;106231;-53
2023/10/01 10:17:53;;;;;;;;;;;;;;;19.32;68.80;101111.19;107655;275;114239;-54
2023/10/01 10:20:27;;;;;;;;;;;;;;;19.39;68.46;101120.27;107687;275;94649;-59
2023/10/01 10:23:21;;;;;;;;;;;;;;;19.40;68.22;101115.70;107685;275;97497;-57
2023/10/01 10:26:12;;;;;;;;;;;;;;;19.37;68.01;101121.80;107699;275;121121;-57
2023/10/01 10:28:57;;;;;;;;;;;;;;;19.39;67.78;101120.39;107708;275;106339;-57
2023/10/01 10:31:34;;;;;;;;;;;;;;;19.41;67.64;101117.21;107666;275;114850;-55
2023/10/01 10:34:30;;;;;;;;;;;;;;;19.45;67.52;101115.20;107657;275;94772;-56
2023/10/01 10:37:06;;;;;;;;;;;;;;;19.30;66.87;101107.92;107733;275;97224;-54
2023/10/01 10:40:22;;;;;;;;;;;;;;;19.35;66.75;101108.00;107665;275;121634;-54
2023/10/01 10:43:21;;;;;;;;;;;;;;;19.39;66.45;101102.67;107654;275;104556;-55
2023/10/01 10:46:14;;;;;;;;;;;;;;;19.31;66.18;101103.58;107662;275;114731;-53
2023/10/01 10:49:02;;;;;;;;;;;;;;;19.32;66.11;101103.35;107510;275;93942;-54
2023/10/01 10:51:49;;;;;;;;;;;;;;;19.32;65.85;101100.86;107764;275;96216;-59
2023/10/01 10:54:37;;;;;;;;;;;;;;;19.38;65.91;101100.88;107513;275;122728;-57
2023/10/01 10:57:25;;;;;;;;;;;;;;;19.47;66.06;101094.38;107657;275;106121;-55
2023/10/01 11:00:23;;;;;;;;;;;;;;;19.60;65.99;101092.55;107677;275;112199;-55
2023/10/01 11:03:01;;;;;;;;;;;;;;;19.69;65.69;101092.64;107714;275;93134;-53
2023/10/01 11:05:49;;;;;;;;;;;;;;;19.81;65.26;101092.86;107692;275;95763;-57
2023/10/01 11:08:26;;;;;;;;;;;;;;;19.79;64.90;101087.48;107763;275;119679;-58
2023/10/01 11:11:10;;;;;;;;;;;;;;;19.87;64.62;101086.82;107784;275;103492;-55
2023/10/01 11:13:47;;;;;;;;;;;;;;;19.90;64.20;101086.35;107694;276;112854;-55
2023/10/01 11:16:33;;;;;;;;;;;;;;;19.84;63.63;101090.36;107771;275;94870;-58
2023/10/01 11:19:16;;;;;;;;;;;;;;;19.72;63.21;101086.79;107812;275;97207;-58
2023/10/01 11:21:59;;;;;;;;;;;;;;;19.61;62.81;101088.27;107727;275;120388;-56
2023/10/01 11:24:34;;;;;;;;;;;;;;;19.49;62.30;101087.35;107712;275;105683;-56
2023/10/01 11:27:19;;;;;;;;;;;;;;;19.45;62.34;101081.87;107698;275;114284;-56
2023/10/01 11:30:20;;;;;;;;;;;;;;;19.36;61.91;101080.77;107702;275;94130;-57
2023/10/01 11:33:12;;;;;;;;;;;;;;;19.30;62.03;101082.41;107662;275;98006;-53
2023/10/01 11:35:59;;;;;;;;;;;;;;;19.30;61.89;101081.41;107759;275;122172;-55
2023/10/01 11:38:36;;;;;;;;;;;;;;;19.26;61.62;101075.55;107653;275;105590;-56
2023/10/01 11:41:12;;;;;;;;;;;;;;;19.21;61.53;101076.42;107765;275;113539;-59
2023/10/01 11:43:45;;;;;;;;;;;;;;;19.23;61.62;101074.80;107697;275;93742;-56
2023/10/01 11:46:24;;;;;;;;;;;;;;;19.36;61.54;101070.05;107692;275;97535;-57
2023/10/01 11:48:59;;;;;;;;;;;;;;;19.40;61.63;101065.73;107489;275;122966;-56
2023/10/01 11:51:45;;;;;;;;;;;;;;;19.50;61.60;101057.48;107760;275;103848;-56
2023/10/01 11:54:22;;;;;;;;;;;;;;;19.59;61.33;101056.43;107687;275;114202;-56
2023/10/01 11:57:04;;;;;;;;;;;;;;;19.75;61.58;101059.11;107683;275;94461;-57
2023/10/01 11:59:42;;;;;;;;;;;;;;;19.91;61.54;101060.21;106808;275;97909;-56
2023/10/01 12:02:20;;;;;;;;;;;;;;;20.04;61.41;101061.27;107669;275;121198;-55
2023/10/01 12:04:56;;;;;;;;;;;;;;;20.07;60.89;101063.44;107675;275;106188;-55
2023/10/01 12:07:32;;;;;;;;;;;;;;;19.95;60.72;101065.00;107779;275;114718;-59
2023/10/01 12:10:07;;;;;;;;;;;;;;;19.83;60.44;101068.11;107568;275;95301;-59
2023/10/01 12:12:41;;;;;;;;;;;;;;;19.65;60.47;101068.23;107707;275;95995;-56
2023/10/01 12:18:07;;;;;;;;;;;;;;;19.54;60.65;101073.02;107651;275;105807;-54
2023/10/01 12:20:47;;;;;;;;;;;;;;;19.54;60.66;101070.83;107664;275;114202;-56
2023/10/01 12:23:26;;;;;;;;;;;;;;;19.57;60.72;101069.03;107642;275;94917;-57
2023/10/01 12:26:31;;;;;;;;;;;;;;;19.53;60.24;101070.92;107691;275;96967;-57
2023/10/01 12:29:17;;;;;;;;;;;;;;;19.56;60.11;101067.19;107659;275;122003;-57
2023/10/01 12:31:56;;;;;;;;;;;;;;;19.60;59.84;101056.33;107814;275;104502;-58
2023/10/01 12:34:34;;;;;;;;;;;;;;;19.60;59.93;101056.97;107773;275;113895;-59
2023/10/01 12:42:50;;;;;;;;;;;;;;;19.66;59.85;101051.86;107690;275;120182;-56
2023/10/01 12:45:27;;;;;;;;;;;;;;;19.62;59.84;101050.16;107686;275;104783;-57
2023/10/01 12:48:08;;;;;;;;;;;;;;;19.62;59.42;101049.95;107559;275;114332;-58
2023/10/01 12:50:59;;;;;;;;;;;;;;;19.58;59.10;101045.60;107772;275;95619;-56
2023/10/01 12:53:35;;;;;;;;;;;;;;;19.45;58.99;101044.45;107548;275;97367;-58
2023/10/01 12:56:09;;;;;;;;;;;;;;;19.47;58.96;101040.58;107699;276;122125;-57
2023/10/01 12:58:53;;;;;;;;;;;;;;;19.44;59.13;101037.30;107727;276;105749;-57
2023/10/01 13:01:34;;;;;;;;;;;;;;;19.45;58.81;101042.73;107749;275;115253;-53
2023/10/01 13:04:21;;;;;;;;;;;;;;;19.41;58.75;101038.08;107744;275;92072;-53
2023/10/01 13:07:03;;;;;;;;;;;;;;;19.32;58.91;101036.70;107751;275;97477;-55
2023/10/01 13:09:54;;;;;;;;;;;;;;;19.26;58.44;101037.58;107673;275;121193;-55
2023/10/01 13:12:39;;;;;;;;;;;;;;;19.10;58.35;101041.96;107708;275;106049;-54
2023/10/01 13:15:18;;;;;;;;;;;;;;;19.18;58.85;101038.35;107633;275;114502;-56
2023/10/01 13:18:00;;;;;;;;;;;;;;;19.20;59.11;101034.98;107659;275;93234;-55
2023/10/01 13:20:46;;;;;;;;;;;;;;;19.19;59.36;101036.32;107679;275;98198;-54
2023/10/01 13:23:24;;;;;;;;;;;;;;;19.20;59.63;101037.99;107619;275;122403;-54
2023/10/01 13:26:14;;;;;;;;;;;;;;;19.19;59.42;101031.84;107738;275;105777;-57
2023/10/01 13:28:54;;;;;;;;;;;;;;;19.20;59.59;101027.58;107765;275;113303;-58
2023/10/01 13:31:43;;;;;;;;;;;;;;;19.20;59.62;101024.84;107705;275;95666;-54
2023/10/01 13:34:36;;;;;;;;;;;;;;;19.21;59.42;101024.20;107693;275;97441;-53
2023/10/01 13:37:26;;;;;;;;;;;;;;;19.12;59.33;101023.46;107534;275;122523;-55
2023/10/01 13:40:19;;;;;;;;;;;;;;;19.08;59.44;101022.08;107667;275;104707;-55
2023/10/01 14:08:45;;;;;;;;;;;;;;;18.47;60.14;101024.75;107701;275;106287;-58
2023/10/01 14:11:27;;;;;;;;;;;;;;;18.40;60.24;101025.21;107657;275;114910;-56
2023/10/01 14:13:57;;;;;;;;;;;;;;;18.29;60.46;101022.42;107629;275;95076;-54
2023/10/01 14:16:34;;;;;;;;;;;;;;;18.18;60.62;101024.79;107759;275;98188;-58
2023/10/01 14:19:14;;;;;;;;;;;;;;;18.02;60.66;101020.27;107642;275;120509;-57
2023/10/01 14:21:51;;;;;;;;;;;;;;;17.87;60.93;101018.48;107699;275;104900;-58
2023/10/01 14:24:26;;;;;;;;;;;;;;;17.71;61.24;101019.69;107709;275;114438;-58
2023/10/01 14:27:02;;;;;;;;;;;;;;;17.61;61.39;101026.73;107747;275;93362;-57
2023/10/01 14:29:48;;;;;;;;;;;;;;;17.47;61.52;101026.95;107692;275;97963;-57
2023/10/01 14:32:31;;;;;;;;;;;;;;;17.34;61.69;101025.39;107656;275;122256;-57
2023/10/01 14:35:15;;;;;;;;;;;;;;;17.27;61.89;101029.33;107712;275;104280;-57
2023/10/01 14:37:54;;;;;;;;;;;;;;;17.19;62.00;101029.49;107655;275;113452;-59